sensor_id;sensor_type;location;lat;lon;timestamp;P1;durP1;ratioP1;P2;durP2;ratioP2
75537;SDS011;64121;48.666;8.114;2023-05-08T00:01:59;3.53;;;2.70;;
75537;SDS011;64121;48.666;8.114;2023-05-08T00:04:25;3.22;;;2.70;;
75537;SDS011;64121;48.666;8.114;2023-05-08T00:06:50;3.88;;;2.88;;
75537;SDS011;64121;48.666;8.114;2023-05-08T00:09:15;4.40;;;2.83;;
75537;SDS011;64121;48.666;8.114;2023-05-08T00:11:41;4.45;;;2.88;;
75537;SDS011;64121;48.666;8.114;2023-05-08T00:14:06;2.90;;;2.60;;
75537;SDS011;64121;48.666;8.114;2023-05-08T00:16:33;3.55;;;2.50;;
75537;SDS011;64121;48.666;8.114;2023-05-08T00:18:58;3.30;;;2.42;;
75537;SDS011;64121;48.666;8.114;2023-05-08T00:21:24;4.63;;;2.65;;
75537;SDS011;64121;48.666;8.114;2023-05-08T00:23:49;2.85;;;2.25;;
75537;SDS011;64121;48.666;8.114;2023-05-08T00:26:14;3.85;;;2.45;;
75537;SDS011;64121;48.666;8.114;2023-05-08T00:28:40;3.88;;;2.70;;
75537;SDS011;64121;48.666;8.114;2023-05-08T00:31:05;4.50;;;2.92;;
75537;SDS011;64121;48.666;8.114;2023-05-08T00:33:32;3.53;;;2.80;;
75537;SDS011;64121;48.666;8.114;2023-05-08T00:35:57;4.05;;;2.70;;
75537;SDS011;64121;48.666;8.114;2023-05-08T00:38:23;3.85;;;2.88;;
75537;SDS011;64121;48.666;8.114;2023-05-08T00:40:49;3.63;;;2.65;;
75537;SDS011;64121;48.666;8.114;2023-05-08T00:43:14;3.78;;;3.08;;
75537;SDS011;64121;48.666;8.114;2023-05-08T00:45:39;6.03;;;2.72;;
75537;SDS011;64121;48.666;8.114;2023-05-08T00:48:05;4.30;;;2.85;;
75537;SDS011;64121;48.666;8.114;2023-05-08T00:50:32;3.10;;;2.40;;
75537;SDS011;64121;48.666;8.114;2023-05-08T00:52:59;2.80;;;2.50;;
75537;SDS011;64121;48.666;8.114;2023-05-08T00:55:26;4.20;;;2.72;;
75537;SDS011;64121;48.666;8.114;2023-05-08T00:57:51;3.53;;;2.30;;
75537;SDS011;64121;48.666;8.114;2023-05-08T01:00:17;4.97;;;2.80;;
75537;SDS011;64121;48.666;8.114;2023-05-08T01:02:44;3.33;;;2.63;;
75537;SDS011;64121;48.666;8.114;2023-05-08T01:05:10;3.75;;;2.33;;
75537;SDS011;64121;48.666;8.114;2023-05-08T01:07:37;2.92;;;2.53;;
75537;SDS011;64121;48.666;8.114;2023-05-08T01:10:02;3.47;;;2.50;;
75537;SDS011;64121;48.666;8.114;2023-05-08T01:12:29;3.38;;;2.70;;
75537;SDS011;64121;48.666;8.114;2023-05-08T01:15:04;3.28;;;2.33;;
75537;SDS011;64121;48.666;8.114;2023-05-08T01:17:37;3.85;;;2.53;;
75537;SDS011;64121;48.666;8.114;2023-05-08T01:20:29;3.35;;;2.53;;
75537;SDS011;64121;48.666;8.114;2023-05-08T01:26:07;3.35;;;2.45;;
75537;SDS011;64121;48.666;8.114;2023-05-08T01:28:50;4.75;;;2.60;;
75537;SDS011;64121;48.666;8.114;2023-05-08T01:31:31;4.47;;;2.78;;
75537;SDS011;64121;48.666;8.114;2023-05-08T01:34:14;3.60;;;2.30;;
75537;SDS011;64121;48.666;8.114;2023-05-08T01:36:45;2.85;;;2.40;;
75537;SDS011;64121;48.666;8.114;2023-05-08T01:39:16;3.47;;;2.65;;
75537;SDS011;64121;48.666;8.114;2023-05-08T01:41:45;3.65;;;2.28;;
75537;SDS011;64121;48.666;8.114;2023-05-08T01:44:19;3.65;;;2.25;;
75537;SDS011;64121;48.666;8.114;2023-05-08T01:46:49;2.65;;;2.15;;
75537;SDS011;64121;48.666;8.114;2023-05-08T01:49:19;2.97;;;2.63;;
75537;SDS011;64121;48.666;8.114;2023-05-08T01:51:48;4.28;;;2.70;;
75537;SDS011;64121;48.666;8.114;2023-05-08T01:54:22;3.00;;;2.50;;
75537;SDS011;64121;48.666;8.114;2023-05-08T01:56:53;3.58;;;2.65;;
75537;SDS011;64121;48.666;8.114;2023-05-08T01:59:22;2.78;;;2.45;;
75537;SDS011;64121;48.666;8.114;2023-05-08T02:01:48;3.35;;;2.58;;
75537;SDS011;64121;48.666;8.114;2023-05-08T02:04:19;3.47;;;2.70;;
75537;SDS011;64121;48.666;8.114;2023-05-08T02:06:45;2.97;;;2.25;;
75537;SDS011;64121;48.666;8.114;2023-05-08T02:09:11;6.60;;;2.38;;
75537;SDS011;64121;48.666;8.114;2023-05-08T02:11:37;2.83;;;2.42;;
75537;SDS011;64121;48.666;8.114;2023-05-08T02:14:05;3.17;;;2.40;;
75537;SDS011;64121;48.666;8.114;2023-05-08T02:16:32;3.88;;;2.22;;
75537;SDS011;64121;48.666;8.114;2023-05-08T02:18:59;5.47;;;2.70;;
75537;SDS011;64121;48.666;8.114;2023-05-08T02:21:28;3.00;;;2.20;;
75537;SDS011;64121;48.666;8.114;2023-05-08T02:23:55;2.85;;;2.42;;
75537;SDS011;64121;48.666;8.114;2023-05-08T02:26:22;3.50;;;2.60;;
75537;SDS011;64121;48.666;8.114;2023-05-08T02:28:49;3.15;;;2.50;;
75537;SDS011;64121;48.666;8.114;2023-05-08T02:31:15;3.03;;;2.20;;
75537;SDS011;64121;48.666;8.114;2023-05-08T02:33:43;3.72;;;2.30;;
75537;SDS011;64121;48.666;8.114;2023-05-08T02:36:10;2.95;;;2.47;;
75537;SDS011;64121;48.666;8.114;2023-05-08T02:38:39;3.10;;;2.40;;
75537;SDS011;64121;48.666;8.114;2023-05-08T02:41:07;2.58;;;2.10;;
75537;SDS011;64121;48.666;8.114;2023-05-08T02:43:35;3.10;;;2.55;;
75537;SDS011;64121;48.666;8.114;2023-05-08T02:46:02;2.88;;;2.53;;
75537;SDS011;64121;48.666;8.114;2023-05-08T02:48:37;3.20;;;2.08;;
75537;SDS011;64121;48.666;8.114;2023-05-08T02:51:09;4.90;;;2.38;;
75537;SDS011;64121;48.666;8.114;2023-05-08T02:53:45;2.75;;;2.15;;
75537;SDS011;64121;48.666;8.114;2023-05-08T02:56:20;3.15;;;2.53;;
75537;SDS011;64121;48.666;8.114;2023-05-08T02:58:56;3.22;;;2.03;;
75537;SDS011;64121;48.666;8.114;2023-05-08T03:01:26;2.63;;;2.17;;
75537;SDS011;64121;48.666;8.114;2023-05-08T03:03:57;3.38;;;2.08;;
75537;SDS011;64121;48.666;8.114;2023-05-08T03:06:25;2.75;;;2.00;;
75537;SDS011;64121;48.666;8.114;2023-05-08T03:08:52;2.90;;;2.15;;
75537;SDS011;64121;48.666;8.114;2023-05-08T03:11:25;4.47;;;2.53;;
75537;SDS011;64121;48.666;8.114;2023-05-08T03:13:57;3.40;;;2.42;;
75537;SDS011;64121;48.666;8.114;2023-05-08T03:16:25;3.10;;;2.35;;
75537;SDS011;64121;48.666;8.114;2023-05-08T03:18:56;3.58;;;2.60;;
75537;SDS011;64121;48.666;8.114;2023-05-08T03:21:26;2.80;;;2.40;;
75537;SDS011;64121;48.666;8.114;2023-05-08T03:23:56;4.22;;;2.72;;
75537;SDS011;64121;48.666;8.114;2023-05-08T03:26:23;3.00;;;2.67;;
75537;SDS011;64121;48.666;8.114;2023-05-08T03:28:49;2.58;;;2.13;;
75537;SDS011;64121;48.666;8.114;2023-05-08T03:31:16;3.25;;;2.25;;
75537;SDS011;64121;48.666;8.114;2023-05-08T03:33:42;3.55;;;2.40;;
75537;SDS011;64121;48.666;8.114;2023-05-08T03:36:09;3.03;;;2.20;;
75537;SDS011;64121;48.666;8.114;2023-05-08T03:38:35;2.80;;;2.33;;
75537;SDS011;64121;48.666;8.114;2023-05-08T03:41:01;3.72;;;3.20;;
75537;SDS011;64121;48.666;8.114;2023-05-08T03:43:27;3.47;;;2.70;;
75537;SDS011;64121;48.666;8.114;2023-05-08T03:45:55;3.05;;;2.50;;
75537;SDS011;64121;48.666;8.114;2023-05-08T03:48:21;5.13;;;2.95;;
75537;SDS011;64121;48.666;8.114;2023-05-08T03:50:47;3.85;;;2.70;;
75537;SDS011;64121;48.666;8.114;2023-05-08T03:53:14;3.10;;;2.35;;
75537;SDS011;64121;48.666;8.114;2023-05-08T03:55:39;3.10;;;2.60;;
75537;SDS011;64121;48.666;8.114;2023-05-08T03:58:09;3.33;;;2.78;;
75537;SDS011;64121;48.666;8.114;2023-05-08T04:00:43;3.75;;;2.80;;
75537;SDS011;64121;48.666;8.114;2023-05-08T04:03:23;3.72;;;2.47;;
75537;SDS011;64121;48.666;8.114;2023-05-08T04:05:58;3.67;;;2.47;;
75537;SDS011;64121;48.666;8.114;2023-05-08T04:08:27;3.33;;;2.60;;
75537;SDS011;64121;48.666;8.114;2023-05-08T04:10:55;2.90;;;2.45;;
75537;SDS011;64121;48.666;8.114;2023-05-08T04:13:30;3.05;;;2.65;;
75537;SDS011;64121;48.666;8.114;2023-05-08T04:16:00;4.63;;;2.67;;
75537;SDS011;64121;48.666;8.114;2023-05-08T04:18:30;3.33;;;2.38;;
75537;SDS011;64121;48.666;8.114;2023-05-08T04:21:00;4.05;;;2.58;;
75537;SDS011;64121;48.666;8.114;2023-05-08T04:23:29;3.03;;;2.63;;
75537;SDS011;64121;48.666;8.114;2023-05-08T04:25:55;3.33;;;2.85;;
75537;SDS011;64121;48.666;8.114;2023-05-08T04:28:23;3.20;;;2.70;;
75537;SDS011;64121;48.666;8.114;2023-05-08T04:30:50;3.30;;;3.00;;
75537;SDS011;64121;48.666;8.114;2023-05-08T04:33:16;4.38;;;3.00;;
75537;SDS011;64121;48.666;8.114;2023-05-08T04:35:41;3.17;;;2.88;;
75537;SDS011;64121;48.666;8.114;2023-05-08T04:38:06;3.80;;;2.95;;
75537;SDS011;64121;48.666;8.114;2023-05-08T04:40:32;4.85;;;3.20;;
75537;SDS011;64121;48.666;8.114;2023-05-08T04:42:57;3.70;;;3.30;;
75537;SDS011;64121;48.666;8.114;2023-05-08T04:45:23;5.07;;;3.55;;
75537;SDS011;64121;48.666;8.114;2023-05-08T04:47:50;3.95;;;3.55;;
75537;SDS011;64121;48.666;8.114;2023-05-08T04:50:15;3.60;;;3.25;;
75537;SDS011;64121;48.666;8.114;2023-05-08T04:52:40;4.47;;;3.33;;
75537;SDS011;64121;48.666;8.114;2023-05-08T04:55:06;3.58;;;3.28;;
75537;SDS011;64121;48.666;8.114;2023-05-08T04:57:32;4.55;;;3.08;;
75537;SDS011;64121;48.666;8.114;2023-05-08T04:59:58;3.40;;;3.00;;
75537;SDS011;64121;48.666;8.114;2023-05-08T05:02:24;3.88;;;3.30;;
75537;SDS011;64121;48.666;8.114;2023-05-08T05:04:51;3.90;;;3.08;;
75537;SDS011;64121;48.666;8.114;2023-05-08T05:07:16;3.53;;;3.08;;
75537;SDS011;64121;48.666;8.114;2023-05-08T05:09:41;3.85;;;2.90;;
75537;SDS011;64121;48.666;8.114;2023-05-08T05:12:07;4.45;;;3.20;;
75537;SDS011;64121;48.666;8.114;2023-05-08T05:14:32;5.65;;;3.40;;
75537;SDS011;64121;48.666;8.114;2023-05-08T05:16:57;4.53;;;3.25;;
75537;SDS011;64121;48.666;8.114;2023-05-08T05:19:23;3.75;;;2.80;;
75537;SDS011;64121;48.666;8.114;2023-05-08T05:21:50;5.53;;;3.00;;
75537;SDS011;64121;48.666;8.114;2023-05-08T05:24:15;4.55;;;3.15;;
75537;SDS011;64121;48.666;8.114;2023-05-08T05:26:40;3.10;;;2.80;;
75537;SDS011;64121;48.666;8.114;2023-05-08T05:29:06;3.25;;;2.70;;
75537;SDS011;64121;48.666;8.114;2023-05-08T05:31:31;3.63;;;3.03;;
75537;SDS011;64121;48.666;8.114;2023-05-08T05:33:57;3.65;;;2.90;;
75537;SDS011;64121;48.666;8.114;2023-05-08T05:36:23;3.20;;;2.45;;
75537;SDS011;64121;48.666;8.114;2023-05-08T05:38:49;4.78;;;2.83;;
75537;SDS011;64121;48.666;8.114;2023-05-08T05:41:15;3.33;;;2.50;;
75537;SDS011;64121;48.666;8.114;2023-05-08T05:43:40;3.20;;;2.88;;
75537;SDS011;64121;48.666;8.114;2023-05-08T05:46:06;3.95;;;3.05;;
75537;SDS011;64121;48.666;8.114;2023-05-08T05:48:32;3.20;;;2.67;;
75537;SDS011;64121;48.666;8.114;2023-05-08T05:50:57;2.90;;;2.55;;
75537;SDS011;64121;48.666;8.114;2023-05-08T05:53:23;4.63;;;3.50;;
75537;SDS011;64121;48.666;8.114;2023-05-08T05:55:49;4.22;;;3.08;;
75537;SDS011;64121;48.666;8.114;2023-05-08T05:58:15;4.50;;;3.47;;
75537;SDS011;64121;48.666;8.114;2023-05-08T06:00:40;3.03;;;2.72;;
75537;SDS011;64121;48.666;8.114;2023-05-08T06:03:05;4.60;;;3.45;;
75537;SDS011;64121;48.666;8.114;2023-05-08T06:05:31;4.78;;;3.60;;
75537;SDS011;64121;48.666;8.114;2023-05-08T06:07:56;3.28;;;2.85;;
75537;SDS011;64121;48.666;8.114;2023-05-08T06:10:21;5.72;;;3.08;;
75537;SDS011;64121;48.666;8.114;2023-05-08T06:12:48;4.20;;;2.88;;
75537;SDS011;64121;48.666;8.114;2023-05-08T06:15:13;5.20;;;3.60;;
75537;SDS011;64121;48.666;8.114;2023-05-08T06:17:39;3.95;;;3.55;;
75537;SDS011;64121;48.666;8.114;2023-05-08T06:20:05;4.28;;;3.70;;
75537;SDS011;64121;48.666;8.114;2023-05-08T06:22:31;6.00;;;3.85;;
75537;SDS011;64121;48.666;8.114;2023-05-08T06:24:57;4.10;;;3.13;;
75537;SDS011;64121;48.666;8.114;2023-05-08T06:27:22;4.70;;;3.40;;
75537;SDS011;64121;48.666;8.114;2023-05-08T06:29:49;4.47;;;3.40;;
75537;SDS011;64121;48.666;8.114;2023-05-08T06:32:14;5.03;;;3.63;;
75537;SDS011;64121;48.666;8.114;2023-05-08T06:34:40;5.15;;;4.65;;
75537;SDS011;64121;48.666;8.114;2023-05-08T06:37:05;5.25;;;4.72;;
75537;SDS011;64121;48.666;8.114;2023-05-08T06:39:30;5.75;;;4.15;;
75537;SDS011;64121;48.666;8.114;2023-05-08T06:41:56;4.00;;;3.60;;
75537;SDS011;64121;48.666;8.114;2023-05-08T06:44:21;4.45;;;4.05;;
75537;SDS011;64121;48.666;8.114;2023-05-08T06:46:48;6.63;;;5.18;;
75537;SDS011;64121;48.666;8.114;2023-05-08T06:49:13;5.30;;;4.63;;
75537;SDS011;64121;48.666;8.114;2023-05-08T06:51:39;5.22;;;4.40;;
75537;SDS011;64121;48.666;8.114;2023-05-08T06:54:04;6.22;;;4.20;;
75537;SDS011;64121;48.666;8.114;2023-05-08T06:56:29;5.10;;;4.50;;
75537;SDS011;64121;48.666;8.114;2023-05-08T06:58:55;6.28;;;4.93;;
75537;SDS011;64121;48.666;8.114;2023-05-08T07:01:20;5.15;;;4.65;;
75537;SDS011;64121;48.666;8.114;2023-05-08T07:03:47;5.53;;;4.47;;
75537;SDS011;64121;48.666;8.114;2023-05-08T07:06:12;4.82;;;4.13;;
75537;SDS011;64121;48.666;8.114;2023-05-08T07:08:41;5.15;;;4.43;;
75537;SDS011;64121;48.666;8.114;2023-05-08T07:11:10;4.88;;;3.92;;
75537;SDS011;64121;48.666;8.114;2023-05-08T07:13:37;4.53;;;4.05;;
75537;SDS011;64121;48.666;8.114;2023-05-08T07:16:07;7.07;;;4.60;;
75537;SDS011;64121;48.666;8.114;2023-05-08T07:18:34;5.53;;;4.55;;
75537;SDS011;64121;48.666;8.114;2023-05-08T07:21:01;5.10;;;3.97;;
75537;SDS011;64121;48.666;8.114;2023-05-08T07:23:27;5.20;;;4.03;;
75537;SDS011;64121;48.666;8.114;2023-05-08T07:25:55;4.53;;;4.05;;
75537;SDS011;64121;48.666;8.114;2023-05-08T07:28:20;5.35;;;4.18;;
75537;SDS011;64121;48.666;8.114;2023-05-08T07:30:46;5.38;;;4.88;;
75537;SDS011;64121;48.666;8.114;2023-05-08T07:33:13;5.43;;;4.57;;
75537;SDS011;64121;48.666;8.114;2023-05-08T07:35:40;5.13;;;4.50;;
75537;SDS011;64121;48.666;8.114;2023-05-08T07:38:09;6.70;;;4.47;;
75537;SDS011;64121;48.666;8.114;2023-05-08T07:40:34;6.78;;;5.22;;
75537;SDS011;64121;48.666;8.114;2023-05-08T07:43:01;5.80;;;4.82;;
75537;SDS011;64121;48.666;8.114;2023-05-08T07:45:30;5.43;;;4.78;;
75537;SDS011;64121;48.666;8.114;2023-05-08T07:47:56;6.07;;;5.35;;
75537;SDS011;64121;48.666;8.114;2023-05-08T07:50:23;5.45;;;4.95;;
75537;SDS011;64121;48.666;8.114;2023-05-08T07:52:49;4.78;;;4.28;;
75537;SDS011;64121;48.666;8.114;2023-05-08T07:55:17;5.47;;;4.97;;
75537;SDS011;64121;48.666;8.114;2023-05-08T07:57:43;6.25;;;5.18;;
75537;SDS011;64121;48.666;8.114;2023-05-08T08:00:11;5.95;;;4.85;;
75537;SDS011;64121;48.666;8.114;2023-05-08T08:02:39;5.65;;;5.05;;
75537;SDS011;64121;48.666;8.114;2023-05-08T08:05:05;6.35;;;5.00;;
75537;SDS011;64121;48.666;8.114;2023-05-08T08:07:32;4.75;;;4.20;;
75537;SDS011;64121;48.666;8.114;2023-05-08T08:10:00;5.85;;;5.20;;
75537;SDS011;64121;48.666;8.114;2023-05-08T08:12:28;5.75;;;4.90;;
75537;SDS011;64121;48.666;8.114;2023-05-08T08:14:55;5.72;;;4.78;;
75537;SDS011;64121;48.666;8.114;2023-05-08T08:17:20;5.28;;;4.78;;
75537;SDS011;64121;48.666;8.114;2023-05-08T08:19:47;5.78;;;4.88;;
75537;SDS011;64121;48.666;8.114;2023-05-08T08:22:13;4.93;;;4.40;;
75537;SDS011;64121;48.666;8.114;2023-05-08T08:24:38;4.47;;;4.07;;
75537;SDS011;64121;48.666;8.114;2023-05-08T08:27:04;4.32;;;3.92;;
75537;SDS011;64121;48.666;8.114;2023-05-08T08:29:32;5.13;;;4.07;;
75537;SDS011;64121;48.666;8.114;2023-05-08T08:31:59;4.70;;;3.70;;
75537;SDS011;64121;48.666;8.114;2023-05-08T08:34:25;5.93;;;4.50;;
75537;SDS011;64121;48.666;8.114;2023-05-08T08:36:51;4.38;;;3.95;;
75537;SDS011;64121;48.666;8.114;2023-05-08T08:39:19;4.95;;;4.35;;
75537;SDS011;64121;48.666;8.114;2023-05-08T08:41:46;3.97;;;3.58;;
75537;SDS011;64121;48.666;8.114;2023-05-08T08:44:12;4.38;;;3.65;;
75537;SDS011;64121;48.666;8.114;2023-05-08T08:46:43;3.95;;;3.00;;
75537;SDS011;64121;48.666;8.114;2023-05-08T08:49:16;3.47;;;3.05;;
75537;SDS011;64121;48.666;8.114;2023-05-08T08:51:45;3.72;;;3.35;;
75537;SDS011;64121;48.666;8.114;2023-05-08T08:54:16;4.25;;;3.38;;
75537;SDS011;64121;48.666;8.114;2023-05-08T08:56:48;4.47;;;3.55;;
75537;SDS011;64121;48.666;8.114;2023-05-08T08:59:16;3.90;;;3.50;;
75537;SDS011;64121;48.666;8.114;2023-05-08T09:01:44;3.45;;;2.78;;
75537;SDS011;64121;48.666;8.114;2023-05-08T09:04:14;4.57;;;4.05;;
75537;SDS011;64121;48.666;8.114;2023-05-08T09:06:41;4.20;;;3.38;;
75537;SDS011;64121;48.666;8.114;2023-05-08T09:09:06;5.15;;;3.72;;
75537;SDS011;64121;48.666;8.114;2023-05-08T09:11:32;4.53;;;4.10;;
75537;SDS011;64121;48.666;8.114;2023-05-08T09:13:57;4.80;;;3.88;;
75537;SDS011;64121;48.666;8.114;2023-05-08T09:16:23;5.65;;;5.05;;
75537;SDS011;64121;48.666;8.114;2023-05-08T09:18:51;4.30;;;3.90;;
75537;SDS011;64121;48.666;8.114;2023-05-08T09:21:16;5.50;;;3.80;;
75537;SDS011;64121;48.666;8.114;2023-05-08T09:23:54;4.63;;;3.95;;
75537;SDS011;64121;48.666;8.114;2023-05-08T09:26:27;4.85;;;3.88;;
75537;SDS011;64121;48.666;8.114;2023-05-08T09:31:33;4.25;;;3.45;;
75537;SDS011;64121;48.666;8.114;2023-05-08T09:34:00;5.55;;;3.30;;
75537;SDS011;64121;48.666;8.114;2023-05-08T09:36:25;3.83;;;3.45;;
75537;SDS011;64121;48.666;8.114;2023-05-08T09:38:51;4.72;;;3.35;;
75537;SDS011;64121;48.666;8.114;2023-05-08T09:41:16;4.13;;;3.35;;
75537;SDS011;64121;48.666;8.114;2023-05-08T09:43:42;3.83;;;3.20;;
75537;SDS011;64121;48.666;8.114;2023-05-08T09:46:21;4.40;;;3.13;;
75537;SDS011;64121;48.666;8.114;2023-05-08T09:48:47;5.00;;;3.40;;
75537;SDS011;64121;48.666;8.114;2023-05-08T09:51:14;4.63;;;4.13;;
75537;SDS011;64121;48.666;8.114;2023-05-08T09:53:40;4.65;;;4.18;;
75537;SDS011;64121;48.666;8.114;2023-05-08T09:56:05;4.70;;;4.20;;
75537;SDS011;64121;48.666;8.114;2023-05-08T09:58:36;5.45;;;4.45;;
75537;SDS011;64121;48.666;8.114;2023-05-08T10:01:02;5.80;;;5.18;;
75537;SDS011;64121;48.666;8.114;2023-05-08T10:06:11;5.47;;;4.68;;
75537;SDS011;64121;48.666;8.114;2023-05-08T10:08:38;5.55;;;4.35;;
75537;SDS011;64121;48.666;8.114;2023-05-08T10:11:12;5.18;;;4.40;;
75537;SDS011;64121;48.666;8.114;2023-05-08T10:13:37;6.20;;;5.45;;
75537;SDS011;64121;48.666;8.114;2023-05-08T10:16:03;5.38;;;4.05;;
75537;SDS011;64121;48.666;8.114;2023-05-08T10:18:29;4.63;;;3.55;;
75537;SDS011;64121;48.666;8.114;2023-05-08T10:21:00;5.40;;;3.83;;
75537;SDS011;64121;48.666;8.114;2023-05-08T10:23:30;4.95;;;3.85;;
75537;SDS011;64121;48.666;8.114;2023-05-08T10:26:04;5.10;;;4.00;;
75537;SDS011;64121;48.666;8.114;2023-05-08T10:28:36;5.43;;;4.25;;
75537;SDS011;64121;48.666;8.114;2023-05-08T10:31:06;7.13;;;4.30;;
75537;SDS011;64121;48.666;8.114;2023-05-08T10:33:32;5.15;;;4.55;;
75537;SDS011;64121;48.666;8.114;2023-05-08T10:35:59;6.45;;;4.82;;
75537;SDS011;64121;48.666;8.114;2023-05-08T10:38:24;8.30;;;6.65;;
75537;SDS011;64121;48.666;8.114;2023-05-08T10:40:51;9.05;;;6.75;;
75537;SDS011;64121;48.666;8.114;2023-05-08T10:43:18;8.00;;;6.18;;
75537;SDS011;64121;48.666;8.114;2023-05-08T10:45:44;11.48;;;7.88;;
75537;SDS011;64121;48.666;8.114;2023-05-08T10:48:13;9.00;;;7.07;;
75537;SDS011;64121;48.666;8.114;2023-05-08T10:50:50;8.02;;;5.70;;
75537;SDS011;64121;48.666;8.114;2023-05-08T10:53:24;8.15;;;5.90;;
75537;SDS011;64121;48.666;8.114;2023-05-08T10:55:58;9.90;;;8.30;;
75537;SDS011;64121;48.666;8.114;2023-05-08T10:58:29;10.02;;;8.60;;
75537;SDS011;64121;48.666;8.114;2023-05-08T11:01:11;10.00;;;7.47;;
75537;SDS011;64121;48.666;8.114;2023-05-08T11:03:39;9.27;;;7.88;;
75537;SDS011;64121;48.666;8.114;2023-05-08T11:06:06;10.63;;;7.40;;
75537;SDS011;64121;48.666;8.114;2023-05-08T11:08:32;7.03;;;5.85;;
75537;SDS011;64121;48.666;8.114;2023-05-08T11:11:10;7.85;;;6.80;;
75537;SDS011;64121;48.666;8.114;2023-05-08T11:13:43;7.25;;;5.72;;
75537;SDS011;64121;48.666;8.114;2023-05-08T11:16:14;7.47;;;5.28;;
75537;SDS011;64121;48.666;8.114;2023-05-08T11:18:52;5.47;;;4.50;;
75537;SDS011;64121;48.666;8.114;2023-05-08T11:21:46;4.30;;;3.55;;
75537;SDS011;64121;48.666;8.114;2023-05-08T11:24:38;4.88;;;3.55;;
75537;SDS011;64121;48.666;8.114;2023-05-08T11:27:04;3.20;;;2.50;;
75537;SDS011;64121;48.666;8.114;2023-05-08T11:29:31;3.03;;;2.00;;
75537;SDS011;64121;48.666;8.114;2023-05-08T11:31:57;2.55;;;1.70;;
75537;SDS011;64121;48.666;8.114;2023-05-08T11:34:43;2.25;;;1.80;;
75537;SDS011;64121;48.666;8.114;2023-05-08T11:37:09;2.72;;;1.52;;
75537;SDS011;64121;48.666;8.114;2023-05-08T11:39:35;2.83;;;1.60;;
75537;SDS011;64121;48.666;8.114;2023-05-08T11:45:03;2.55;;;1.38;;
75537;SDS011;64121;48.666;8.114;2023-05-08T11:47:31;1.85;;;1.30;;
75537;SDS011;64121;48.666;8.114;2023-05-08T11:50:01;2.10;;;1.48;;
75537;SDS011;64121;48.666;8.114;2023-05-08T11:52:27;2.33;;;1.40;;
75537;SDS011;64121;48.666;8.114;2023-05-08T11:54:52;2.15;;;1.38;;
75537;SDS011;64121;48.666;8.114;2023-05-08T11:57:18;2.30;;;1.80;;
75537;SDS011;64121;48.666;8.114;2023-05-08T11:59:43;1.58;;;1.00;;
75537;SDS011;64121;48.666;8.114;2023-05-08T12:02:15;2.20;;;1.60;;
75537;SDS011;64121;48.666;8.114;2023-05-08T12:04:43;2.00;;;1.50;;
75537;SDS011;64121;48.666;8.114;2023-05-08T12:07:09;3.55;;;1.55;;
75537;SDS011;64121;48.666;8.114;2023-05-08T12:09:34;1.95;;;1.42;;
75537;SDS011;64121;48.666;8.114;2023-05-08T12:12:00;2.10;;;1.48;;
75537;SDS011;64121;48.666;8.114;2023-05-08T12:14:25;3.28;;;1.75;;
75537;SDS011;64121;48.666;8.114;2023-05-08T12:16:51;1.92;;;1.40;;
75537;SDS011;64121;48.666;8.114;2023-05-08T12:19:17;2.17;;;1.80;;
75537;SDS011;64121;48.666;8.114;2023-05-08T12:21:44;2.50;;;1.92;;
75537;SDS011;64121;48.666;8.114;2023-05-08T12:24:10;2.38;;;1.95;;
75537;SDS011;64121;48.666;8.114;2023-05-08T12:26:37;2.92;;;2.03;;
75537;SDS011;64121;48.666;8.114;2023-05-08T12:29:04;2.30;;;1.98;;
75537;SDS011;64121;48.666;8.114;2023-05-08T12:31:30;2.75;;;2.22;;
75537;SDS011;64121;48.666;8.114;2023-05-08T12:33:56;2.40;;;1.88;;
75537;SDS011;64121;48.666;8.114;2023-05-08T12:36:25;2.95;;;2.30;;
75537;SDS011;64121;48.666;8.114;2023-05-08T12:38:52;2.40;;;1.80;;
75537;SDS011;64121;48.666;8.114;2023-05-08T12:41:32;2.60;;;2.20;;
75537;SDS011;64121;48.666;8.114;2023-05-08T12:43:58;2.20;;;1.70;;
75537;SDS011;64121;48.666;8.114;2023-05-08T12:46:24;2.28;;;1.65;;
75537;SDS011;64121;48.666;8.114;2023-05-08T12:48:58;2.80;;;1.65;;
75537;SDS011;64121;48.666;8.114;2023-05-08T12:51:29;2.60;;;2.10;;
75537;SDS011;64121;48.666;8.114;2023-05-08T12:53:55;2.72;;;2.20;;
75537;SDS011;64121;48.666;8.114;2023-05-08T12:56:21;2.58;;;2.00;;
75537;SDS011;64121;48.666;8.114;2023-05-08T12:58:46;4.25;;;2.13;;
75537;SDS011;64121;48.666;8.114;2023-05-08T13:01:12;4.47;;;2.85;;
75537;SDS011;64121;48.666;8.114;2023-05-08T13:03:37;3.80;;;2.67;;
75537;SDS011;64121;48.666;8.114;2023-05-08T13:06:04;3.50;;;2.65;;
75537;SDS011;64121;48.666;8.114;2023-05-08T13:08:31;3.88;;;2.72;;
75537;SDS011;64121;48.666;8.114;2023-05-08T13:10:58;3.65;;;3.10;;
75537;SDS011;64121;48.666;8.114;2023-05-08T13:13:25;2.80;;;2.05;;
75537;SDS011;64121;48.666;8.114;2023-05-08T13:15:52;2.88;;;2.30;;
75537;SDS011;64121;48.666;8.114;2023-05-08T13:18:19;3.53;;;2.47;;
75537;SDS011;64121;48.666;8.114;2023-05-08T13:20:47;3.15;;;2.65;;
75537;SDS011;64121;48.666;8.114;2023-05-08T13:23:13;4.43;;;2.83;;
75537;SDS011;64121;48.666;8.114;2023-05-08T13:25:39;8.07;;;6.50;;
75537;SDS011;64121;48.666;8.114;2023-05-08T13:28:06;7.47;;;6.35;;
75537;SDS011;64121;48.666;8.114;2023-05-08T13:30:32;11.02;;;6.32;;
75537;SDS011;64121;48.666;8.114;2023-05-08T13:32:58;7.18;;;6.47;;
75537;SDS011;64121;48.666;8.114;2023-05-08T13:35:24;6.45;;;5.85;;
75537;SDS011;64121;48.666;8.114;2023-05-08T13:37:49;5.18;;;4.68;;
75537;SDS011;64121;48.666;8.114;2023-05-08T13:40:15;6.43;;;5.82;;
75537;SDS011;64121;48.666;8.114;2023-05-08T13:42:42;6.68;;;5.40;;
75537;SDS011;64121;48.666;8.114;2023-05-08T13:45:08;6.03;;;5.40;;
75537;SDS011;64121;48.666;8.114;2023-05-08T13:47:34;5.88;;;5.20;;
75537;SDS011;64121;48.666;8.114;2023-05-08T13:49:59;5.57;;;5.00;;
75537;SDS011;64121;48.666;8.114;2023-05-08T13:52:24;5.00;;;4.50;;
75537;SDS011;64121;48.666;8.114;2023-05-08T13:54:50;6.97;;;4.68;;
75537;SDS011;64121;48.666;8.114;2023-05-08T13:57:15;4.80;;;4.03;;
75537;SDS011;64121;48.666;8.114;2023-05-08T13:59:42;5.75;;;4.93;;
75537;SDS011;64121;48.666;8.114;2023-05-08T14:02:08;5.32;;;4.30;;
75537;SDS011;64121;48.666;8.114;2023-05-08T14:04:33;4.70;;;3.85;;
75537;SDS011;64121;48.666;8.114;2023-05-08T14:06:58;6.03;;;4.57;;
75537;SDS011;64121;48.666;8.114;2023-05-08T14:09:24;4.75;;;4.13;;
75537;SDS011;64121;48.666;8.114;2023-05-08T14:11:49;4.85;;;3.50;;
75537;SDS011;64121;48.666;8.114;2023-05-08T14:14:14;5.32;;;3.38;;
75537;SDS011;64121;48.666;8.114;2023-05-08T14:16:41;4.47;;;4.07;;
75537;SDS011;64121;48.666;8.114;2023-05-08T14:19:06;5.07;;;4.40;;
75537;SDS011;64121;48.666;8.114;2023-05-08T14:21:32;5.68;;;5.03;;
75537;SDS011;64121;48.666;8.114;2023-05-08T14:23:57;7.22;;;5.35;;
75537;SDS011;64121;48.666;8.114;2023-05-08T14:26:22;6.97;;;5.50;;
75537;SDS011;64121;48.666;8.114;2023-05-08T14:28:48;6.55;;;5.53;;
75537;SDS011;64121;48.666;8.114;2023-05-08T14:31:13;6.72;;;6.07;;
75537;SDS011;64121;48.666;8.114;2023-05-08T14:33:40;7.00;;;6.05;;
75537;SDS011;64121;48.666;8.114;2023-05-08T14:36:05;6.65;;;5.47;;
75537;SDS011;64121;48.666;8.114;2023-05-08T14:38:31;5.30;;;4.78;;
75537;SDS011;64121;48.666;8.114;2023-05-08T14:40:56;7.70;;;4.80;;
75537;SDS011;64121;48.666;8.114;2023-05-08T14:43:22;5.25;;;4.55;;
75537;SDS011;64121;48.666;8.114;2023-05-08T14:45:48;4.90;;;4.35;;
75537;SDS011;64121;48.666;8.114;2023-05-08T14:48:14;4.32;;;3.92;;
75537;SDS011;64121;48.666;8.114;2023-05-08T14:50:41;7.35;;;5.20;;
75537;SDS011;64121;48.666;8.114;2023-05-08T14:53:06;5.60;;;4.53;;
75537;SDS011;64121;48.666;8.114;2023-05-08T14:55:31;4.63;;;3.88;;
75537;SDS011;64121;48.666;8.114;2023-05-08T14:57:57;6.00;;;4.50;;
75537;SDS011;64121;48.666;8.114;2023-05-08T15:00:22;5.25;;;4.47;;
75537;SDS011;64121;48.666;8.114;2023-05-08T15:02:48;4.55;;;3.85;;